createdAt,value
2023-02-14T00:01:27.892Z,102699.25
2023-02-14T00:06:21.330Z,102698.50
2023-02-14T00:11:14.855Z,102721.03
2023-02-14T00:16:08.443Z,102699.03
2023-02-14T00:21:01.640Z,102715.84
2023-02-14T00:25:55.330Z,102698.13
2023-02-14T00:30:49.322Z,102702.72
2023-02-14T00:35:42.312Z,102710.56
2023-02-14T00:40:35.560Z,102682.63
2023-02-14T00:45:28.496Z,102701.75
2023-02-14T00:50:22.008Z,102705.38
2023-02-14T00:55:18.242Z,102707.13
2023-02-14T01:00:16.469Z,102687.16
2023-02-14T01:05:09.509Z,102701.91
2023-02-14T01:10:03.528Z,102712.59
2023-02-14T01:14:56.896Z,102694.09
2023-02-14T01:19:53.097Z,102677.69
2023-02-14T01:24:46.453Z,102690.59
2023-02-14T01:29:39.512Z,102667.97
2023-02-14T01:34:31.976Z,102669.59
2023-02-14T01:39:24.930Z,102675.78
2023-02-14T01:44:17.748Z,102694.06
2023-02-14T01:49:21.536Z,102681.66
2023-02-14T01:54:16.846Z,102685.16
2023-02-14T01:59:13.679Z,102658.91
2023-02-14T02:04:15.513Z,102671.13
2023-02-14T02:09:22.082Z,102643.84
2023-02-14T02:14:18.964Z,102638.50
2023-02-14T02:19:31.946Z,102655.88
2023-02-14T02:24:36.364Z,102641.88
2023-02-14T02:29:50.567Z,102643.56
2023-02-14T02:35:01.267Z,102639.06
2023-02-14T02:39:54.490Z,102631.03
2023-02-14T02:45:03.860Z,102633.69
2023-02-14T02:50:23.257Z,102629.28
2023-02-14T02:55:23.467Z,102618.63
2023-02-14T03:00:19.397Z,102611.78
2023-02-14T03:05:13.425Z,102596.91
2023-02-14T03:10:13.713Z,102610.66
2023-02-14T03:15:29.319Z,102608.91
2023-02-14T03:20:59.006Z,102604.50
2023-02-14T03:26:22.033Z,102601.94
2023-02-14T03:31:45.943Z,102613.38
2023-02-14T03:36:51.207Z,102614.25
2023-02-14T03:41:51.223Z,102589.84
2023-02-14T03:46:52.526Z,102589.72
2023-02-14T03:51:50.256Z,102587.22
2023-02-14T03:57:27.245Z,102607.22
2023-02-14T04:02:51.767Z,102619.59
2023-02-14T04:07:53.246Z,102612.63
2023-02-14T04:12:45.804Z,102621.47
2023-02-14T04:17:57.321Z,102598.00
2023-02-14T04:22:52.289Z,102599.69
2023-02-14T04:27:45.740Z,102602.38
2023-02-14T04:32:39.732Z,102605.13
2023-02-14T04:37:32.177Z,102632.19
2023-02-14T04:42:25.577Z,102627.84
2023-02-14T04:47:20.008Z,102629.66
2023-02-14T04:52:14.688Z,102626.09
2023-02-14T04:57:07.608Z,102590.38
2023-02-14T05:02:00.762Z,102600.75
2023-02-14T05:06:53.739Z,102576.53
2023-02-14T05:11:47.644Z,102614.09
2023-02-14T05:16:40.848Z,102603.66
2023-02-14T05:21:33.554Z,102601.13
2023-02-14T05:26:26.025Z,102594.94
2023-02-14T05:31:19.363Z,102620.25
2023-02-14T05:36:13.833Z,102623.75
2023-02-14T05:41:07.472Z,102608.25
2023-02-14T05:46:00.457Z,102643.19
2023-02-14T05:50:54.476Z,102633.63
2023-02-14T05:55:48.445Z,102626.75
2023-02-14T06:00:41.384Z,102661.75
2023-02-14T06:05:35.133Z,102627.66
2023-02-14T06:10:28.678Z,102656.41
2023-02-14T06:15:22.485Z,102660.81
2023-02-14T06:20:15.125Z,102653.59
2023-02-14T06:25:08.758Z,102621.22
2023-02-14T06:30:01.824Z,102647.44
2023-02-14T06:34:54.496Z,102638.53
2023-02-14T06:39:48.152Z,102630.00
2023-02-14T06:44:41.153Z,102641.25
2023-02-14T06:49:35.025Z,102640.56
2023-02-14T06:54:28.643Z,102662.47
2023-02-14T06:59:22.578Z,102645.09
2023-02-14T07:04:16.265Z,102648.63
2023-02-14T07:09:08.616Z,102667.72
2023-02-14T07:14:01.821Z,102647.69
2023-02-14T07:18:55.046Z,102663.28
2023-02-14T07:23:50.054Z,102639.78
2023-02-14T07:28:45.198Z,102664.22
2023-02-14T07:33:38.213Z,102663.44
2023-02-14T07:38:32.431Z,102646.00
2023-02-14T07:43:26.153Z,102677.41
2023-02-14T07:48:18.782Z,102661.91
2023-02-14T07:53:12.188Z,102652.22
2023-02-14T07:58:06.057Z,102674.00
2023-02-14T08:02:58.200Z,102667.78
2023-02-14T08:07:51.080Z,102657.31
2023-02-14T08:13:02.142Z,102636.44
2023-02-14T08:17:56.041Z,102624.03
2023-02-14T08:22:49.136Z,102657.50
2023-02-14T08:27:41.733Z,102655.78
2023-02-14T08:32:35.104Z,102626.94
2023-02-14T08:37:28.006Z,102627.78
2023-02-14T08:42:21.380Z,102632.97
2023-02-14T08:47:13.897Z,102639.88
2023-02-14T08:52:07.290Z,102638.97
2023-02-14T08:57:00.375Z,102633.66
2023-02-14T09:01:53.745Z,102619.63
2023-02-14T09:06:47.642Z,102615.47
2023-02-14T09:11:40.566Z,102630.94
2023-02-14T09:16:34.858Z,102631.84
2023-02-14T09:21:27.994Z,102634.44
2023-02-14T09:26:21.626Z,102615.22
2023-02-14T09:31:22.640Z,102631.75
2023-02-14T09:36:16.189Z,102617.88
2023-02-14T09:41:11.213Z,102611.75
2023-02-14T09:46:07.831Z,102632.72
2023-02-14T09:51:07.805Z,102627.44
2023-02-14T09:56:15.238Z,102626.34
2023-02-14T10:01:31.479Z,102625.63
2023-02-14T10:06:45.357Z,102617.66
2023-02-14T10:11:39.637Z,102598.56
2023-02-14T10:16:39.291Z,102623.94
2023-02-14T10:21:38.765Z,102600.91
2023-02-14T10:26:40.377Z,102599.09
2023-02-14T10:31:59.449Z,102603.56
2023-02-14T10:37:07.547Z,102591.09
2023-02-14T10:42:18.725Z,102586.75
2023-02-14T10:47:23.412Z,102570.84
2023-02-14T10:52:22.361Z,102572.66
2023-02-14T10:57:33.636Z,102559.41
2023-02-14T11:02:33.028Z,102522.66
2023-02-14T11:07:26.588Z,102534.63
2023-02-14T11:12:55.718Z,102515.16
2023-02-14T11:17:49.105Z,102509.16
2023-02-14T11:22:43.040Z,102492.53
2023-02-14T11:27:37.903Z,102488.03
2023-02-14T11:32:34.711Z,102480.63
2023-02-14T11:37:28.859Z,102473.72
2023-02-14T11:42:54.670Z,102466.53
2023-02-14T11:48:08.080Z,102485.16
2023-02-14T11:53:02.070Z,102436.06
2023-02-14T11:57:55.178Z,102449.88
2023-02-14T12:02:51.455Z,102409.84
2023-02-14T12:07:45.977Z,102420.13
2023-02-14T12:12:40.389Z,102434.09
2023-02-14T12:17:38.417Z,102414.66
2023-02-14T12:22:40.647Z,102385.00
2023-02-14T12:27:53.314Z,102390.22
2023-02-14T12:32:54.575Z,102376.09
2023-02-14T12:38:02.748Z,102388.22
2023-02-14T12:43:24.562Z,102382.00
2023-02-14T12:48:36.147Z,102376.69
2023-02-14T12:53:45.921Z,102323.38
2023-02-14T12:59:08.335Z,102379.28
2023-02-14T13:04:21.103Z,102355.38
2023-02-14T13:09:15.881Z,102338.59
2023-02-14T13:14:24.135Z,102331.28
2023-02-14T13:19:46.354Z,102301.53
2023-02-14T13:24:45.352Z,102291.75
2023-02-14T13:29:48.503Z,102280.97
2023-02-14T13:34:47.947Z,102292.81
2023-02-14T13:39:49.711Z,102287.44
2023-02-14T13:44:43.432Z,102271.00
2023-02-14T13:49:40.976Z,102279.50
2023-02-14T13:54:48.039Z,102279.22
2023-02-14T13:59:41.485Z,102243.38
2023-02-14T14:04:37.356Z,102250.47
2023-02-14T14:09:44.531Z,102268.59
2023-02-14T14:14:37.972Z,102232.66
2023-02-14T14:19:30.415Z,102258.84
2023-02-14T14:24:25.890Z,102246.16
2023-02-14T14:29:31.405Z,102200.19
2023-02-14T14:34:27.410Z,102236.78
2023-02-14T14:39:29.130Z,102219.34
2023-02-14T14:44:22.605Z,102227.81
2023-02-14T14:49:17.825Z,102212.34
2023-02-14T14:54:13.567Z,102238.38
2023-02-14T14:59:28.459Z,102225.28
2023-02-14T15:04:41.506Z,102221.88
2023-02-14T15:09:35.608Z,102218.41
2023-02-14T15:14:30.421Z,102216.69
2023-02-14T15:19:45.436Z,102214.81
2023-02-14T15:24:38.995Z,102195.88
2023-02-14T15:29:34.121Z,102200.91
2023-02-14T15:34:50.712Z,102185.34
2023-02-14T15:39:56.929Z,102199.06
2023-02-14T15:44:50.129Z,102188.03
2023-02-14T15:49:47.016Z,102208.91
2023-02-14T15:54:46.396Z,102201.84
2023-02-14T15:59:43.288Z,102200.16
2023-02-14T16:04:36.635Z,102178.34
2023-02-14T16:09:31.360Z,102162.06
2023-02-14T16:14:35.860Z,102206.22
2023-02-14T16:19:38.549Z,102179.41
2023-02-14T16:24:31.219Z,102159.41
2023-02-14T16:29:24.690Z,102203.66
2023-02-14T16:34:17.382Z,102198.25
2023-02-14T16:39:19.782Z,102206.06
2023-02-14T16:44:24.652Z,102192.97
2023-02-14T16:49:17.717Z,102176.69
2023-02-14T16:54:19.305Z,102186.84
2023-02-14T16:59:12.113Z,102164.41
2023-02-14T17:04:04.874Z,102184.28
2023-02-14T17:09:02.162Z,102200.78
2023-02-14T17:13:56.114Z,102209.72
2023-02-14T17:18:52.807Z,102171.66
2023-02-14T17:23:45.861Z,102214.34
2023-02-14T17:28:40.076Z,102197.91
2023-02-14T17:33:33.848Z,102210.78
2023-02-14T17:38:27.244Z,102209.06
2023-02-14T17:43:20.851Z,102211.91
2023-02-14T17:48:13.420Z,102201.28
2023-02-14T17:53:06.521Z,102224.78
2023-02-14T17:58:00.554Z,102240.72
2023-02-14T18:02:53.552Z,102233.56
2023-02-14T18:07:46.695Z,102224.59
2023-02-14T18:12:40.231Z,102204.59
2023-02-14T18:17:34.385Z,102204.47
2023-02-14T18:22:28.413Z,102201.13
2023-02-14T18:27:22.203Z,102221.94
2023-02-14T18:32:15.087Z,102232.56
2023-02-14T18:37:07.844Z,102220.28
2023-02-14T18:42:01.795Z,102221.94
2023-02-14T18:46:54.862Z,102211.53
2023-02-14T18:51:49.043Z,102220.22
2023-02-14T18:56:41.742Z,102208.13
2023-02-14T19:01:38.200Z,102223.69
2023-02-14T19:06:32.436Z,102224.47
2023-02-14T19:11:31.369Z,102244.84
2023-02-14T19:16:32.541Z,102232.50
2023-02-14T19:21:31.474Z,102211.69
2023-02-14T19:26:39.943Z,102236.88
2023-02-14T19:31:42.356Z,102207.25
2023-02-14T19:36:39.763Z,102211.53
2023-02-14T19:41:34.820Z,102227.13
2023-02-14T19:46:28.968Z,102227.19
2023-02-14T19:51:32.882Z,102225.47
2023-02-14T19:56:29.292Z,102220.03
2023-02-14T20:01:52.954Z,102225.41
2023-02-14T20:06:46.221Z,102223.72
2023-02-14T20:11:51.342Z,102237.88
2023-02-14T20:16:45.435Z,102208.22
2023-02-14T20:21:40.464Z,102205.56
2023-02-14T20:26:36.516Z,102216.00
2023-02-14T20:31:30.902Z,102233.47
2023-02-14T20:36:24.577Z,102235.22
2023-02-14T20:41:17.909Z,102234.47
2023-02-14T20:46:10.925Z,102211.13
2023-02-14T20:51:15.339Z,102236.47
2023-02-14T20:56:08.840Z,102238.16
2023-02-14T21:01:18.897Z,102192.94
2023-02-14T21:06:14.821Z,102232.84
2023-02-14T21:11:09.770Z,102228.34
2023-02-14T21:16:17.327Z,102210.25
2023-02-14T21:21:18.705Z,102225.69
2023-02-14T21:26:12.241Z,102222.97
2023-02-14T21:31:08.094Z,102178.66
2023-02-14T21:36:16.502Z,102225.84
2023-02-14T21:41:12.679Z,102219.34
2023-02-14T21:46:08.008Z,102216.50
2023-02-14T21:51:06.314Z,102236.81
2023-02-14T21:56:12.441Z,102220.03
2023-02-14T22:01:06.257Z,102209.72
2023-02-14T22:06:07.190Z,102208.88
2023-02-14T22:11:05.200Z,102239.28
2023-02-14T22:16:07.710Z,102208.63
2023-02-14T22:21:05.474Z,102213.84
2023-02-14T22:26:09.985Z,102191.03
2023-02-14T22:31:03.845Z,102228.22
2023-02-14T22:35:58.406Z,102210.88
2023-02-14T22:40:50.961Z,102243.03
2023-02-14T22:45:43.724Z,102225.63
2023-02-14T22:50:36.963Z,102229.09
2023-02-14T22:55:30.999Z,102221.88
2023-02-14T23:00:24.621Z,102213.34
2023-02-14T23:05:19.734Z,102235.88
2023-02-14T23:10:12.711Z,102195.16
2023-02-14T23:15:24.702Z,102196.56
2023-02-14T23:20:36.107Z,102220.69
2023-02-14T23:25:30.842Z,102203.41
2023-02-14T23:30:24.100Z,102178.25
2023-02-14T23:35:17.495Z,102191.03
2023-02-14T23:40:10.928Z,102211.81
2023-02-14T23:45:22.239Z,102211.81
2023-02-14T23:50:15.979Z,102203.00
2023-02-14T23:55:10.134Z,102169.00
